createdAt,value
2023-01-17T00:00:32.959Z,39.10
2023-01-17T00:01:36.458Z,38.60
2023-01-17T00:02:38.874Z,38.30
2023-01-17T00:03:59.924Z,38.20
2023-01-17T00:05:25.663Z,38.30
2023-01-17T00:06:48.523Z,38.40
2023-01-17T00:08:09.577Z,38.50
2023-01-17T00:09:34.733Z,38.70
2023-01-17T00:10:42.780Z,38.60
2023-01-17T00:11:46.135Z,38.40
2023-01-17T00:12:52.763Z,38.20
2023-01-17T00:13:56.502Z,38.20
2023-01-17T00:14:59.888Z,38.10
2023-01-17T00:16:02.464Z,38.50
2023-01-17T00:17:05.035Z,38.40
2023-01-17T00:18:07.665Z,38.30
2023-01-17T00:19:28.609Z,38.10
2023-01-17T00:20:50.922Z,38.00
2023-01-17T00:22:11.889Z,38.40
2023-01-17T00:23:38.145Z,38.40
2023-01-17T00:24:59.352Z,38.20
2023-01-17T00:26:04.700Z,38.50
2023-01-17T00:27:12.796Z,38.40
2023-01-17T00:28:15.382Z,38.80
2023-01-17T00:29:17.613Z,38.80
2023-01-17T00:30:19.992Z,38.50
2023-01-17T00:31:22.347Z,38.40
2023-01-17T00:32:24.673Z,37.60
2023-01-17T00:33:27.267Z,38.10
2023-01-17T00:34:29.509Z,38.30
2023-01-17T00:35:32.577Z,38.20
2023-01-17T00:36:34.833Z,38.30
2023-01-17T00:37:37.101Z,38.20
2023-01-17T00:38:39.997Z,38.00
2023-01-17T00:39:42.208Z,38.10
2023-01-17T00:40:46.025Z,38.20
2023-01-17T00:41:48.343Z,38.60
2023-01-17T00:42:50.750Z,38.10
2023-01-17T00:44:11.961Z,38.10
2023-01-17T00:45:33.144Z,38.00
2023-01-17T00:46:54.297Z,38.20
2023-01-17T00:48:15.340Z,38.20
2023-01-17T00:49:36.481Z,38.30
2023-01-17T00:50:57.710Z,38.30
2023-01-17T00:52:19.235Z,38.70
2023-01-17T00:53:40.282Z,38.10
2023-01-17T00:55:01.170Z,38.00
2023-01-17T00:56:23.161Z,38.40
2023-01-17T00:57:44.261Z,37.80
2023-01-17T00:59:05.217Z,37.90
2023-01-17T01:00:26.937Z,38.00
2023-01-17T01:01:48.252Z,38.20
2023-01-17T01:03:09.227Z,38.10
2023-01-17T01:04:30.457Z,38.00
2023-01-17T01:05:51.723Z,38.20
2023-01-17T01:07:12.685Z,38.50
2023-01-17T01:08:39.758Z,38.00
2023-01-17T01:10:00.943Z,38.20
2023-01-17T01:11:30.179Z,38.40
2023-01-17T01:12:51.322Z,37.90
2023-01-17T01:14:12.565Z,38.20
2023-01-17T01:15:33.570Z,38.00
2023-01-17T01:16:54.605Z,37.90
2023-01-17T01:18:15.603Z,38.00
2023-01-17T01:19:36.734Z,38.30
2023-01-17T01:20:57.679Z,38.20
2023-01-17T01:22:18.682Z,38.30
2023-01-17T01:23:39.671Z,38.10
2023-01-17T01:25:00.670Z,38.00
2023-01-17T01:26:22.616Z,38.30
2023-01-17T01:27:43.767Z,38.20
2023-01-17T01:29:04.896Z,38.20
2023-01-17T01:30:26.496Z,38.20
2023-01-17T01:31:47.574Z,38.10
2023-01-17T01:33:08.605Z,38.10
2023-01-17T01:34:10.883Z,37.90
2023-01-17T01:35:13.364Z,38.00
2023-01-17T01:36:15.674Z,37.90
2023-01-17T01:37:18.042Z,37.70
2023-01-17T01:38:23.255Z,37.80
2023-01-17T01:39:25.638Z,38.00
2023-01-17T01:40:28.203Z,38.00
2023-01-17T01:41:30.584Z,37.80
2023-01-17T01:42:32.973Z,38.30
2023-01-17T01:43:48.611Z,38.10
2023-01-17T01:44:53.216Z,38.00
2023-01-17T01:45:57.983Z,38.10
2023-01-17T01:47:00.987Z,37.90
2023-01-17T01:48:21.747Z,38.20
2023-01-17T01:49:26.046Z,38.40
2023-01-17T01:50:30.608Z,38.30
2023-01-17T01:51:38.555Z,38.30
2023-01-17T01:52:45.487Z,37.80
2023-01-17T01:53:52.305Z,37.80
2023-01-17T01:55:17.683Z,37.80
2023-01-17T01:56:23.164Z,37.80
2023-01-17T01:57:29.800Z,37.90
2023-01-17T01:58:36.870Z,38.00
2023-01-17T01:59:44.669Z,37.60
2023-01-17T02:00:47.074Z,38.60
2023-01-17T02:01:52.974Z,37.70
2023-01-17T02:02:59.284Z,37.90
2023-01-17T02:04:02.575Z,37.90
2023-01-17T02:05:05.427Z,38.30
2023-01-17T02:06:20.536Z,38.10
2023-01-17T02:07:37.697Z,38.10
2023-01-17T02:08:41.364Z,38.00
2023-01-17T02:09:44.479Z,37.90
2023-01-17T02:10:47.224Z,38.00
2023-01-17T02:11:50.320Z,37.90
2023-01-17T02:12:54.404Z,37.90
2023-01-17T02:13:56.785Z,37.90
2023-01-17T02:14:59.530Z,38.00
2023-01-17T02:16:32.990Z,37.90
2023-01-17T02:17:44.549Z,37.90
2023-01-17T02:19:19.014Z,37.90
2023-01-17T02:20:45.521Z,38.10
2023-01-17T02:22:11.512Z,38.00
2023-01-17T02:23:31.835Z,38.00
2023-01-17T02:24:55.330Z,38.30
2023-01-17T02:26:19.325Z,38.20
2023-01-17T02:27:35.506Z,37.90
2023-01-17T02:29:10.761Z,38.00
2023-01-17T02:30:33.118Z,37.90
2023-01-17T02:32:03.986Z,38.00
2023-01-17T02:33:21.045Z,38.20
2023-01-17T02:34:35.343Z,38.30
2023-01-17T02:36:04.021Z,38.00
2023-01-17T02:37:11.074Z,38.00
2023-01-17T02:38:32.500Z,38.20
2023-01-17T02:39:53.164Z,38.30
2023-01-17T02:41:02.742Z,38.20
2023-01-17T02:42:12.687Z,38.50
2023-01-17T02:43:17.608Z,38.60
2023-01-17T02:44:20.672Z,38.20
2023-01-17T02:45:23.189Z,38.00
2023-01-17T02:46:25.495Z,38.30
2023-01-17T02:47:30.257Z,38.10
2023-01-17T02:48:36.291Z,37.90
2023-01-17T02:49:38.638Z,37.90
2023-01-17T02:51:01.189Z,38.10
2023-01-17T02:52:12.718Z,38.70
2023-01-17T02:53:35.036Z,38.20
2023-01-17T02:54:54.783Z,37.90
2023-01-17T02:56:17.392Z,38.10
2023-01-17T02:57:31.721Z,37.90
2023-01-17T02:58:55.718Z,38.10
2023-01-17T03:00:24.668Z,38.30
2023-01-17T03:01:41.341Z,38.00
2023-01-17T03:02:46.535Z,38.10
2023-01-17T03:04:04.527Z,38.20
2023-01-17T03:05:31.340Z,38.20
2023-01-17T03:06:39.807Z,38.40
2023-01-17T03:07:44.198Z,38.30
2023-01-17T03:08:48.627Z,38.40
2023-01-17T03:09:57.493Z,38.50
2023-01-17T03:10:59.847Z,38.50
2023-01-17T03:12:04.425Z,38.50
2023-01-17T03:13:06.763Z,38.40
2023-01-17T03:14:09.125Z,38.40
2023-01-17T03:15:13.032Z,38.40
2023-01-17T03:16:21.014Z,38.40
2023-01-17T03:17:26.481Z,38.40
2023-01-17T03:18:28.903Z,38.30
2023-01-17T03:19:31.405Z,38.30
2023-01-17T03:20:33.745Z,38.20
2023-01-17T03:21:36.446Z,38.50
2023-01-17T03:22:38.967Z,38.40
2023-01-17T03:23:41.326Z,38.40
2023-01-17T03:24:43.701Z,38.30
2023-01-17T03:25:46.044Z,39.00
2023-01-17T03:26:48.357Z,38.90
2023-01-17T03:27:50.638Z,38.90
2023-01-17T03:28:53.068Z,39.10
2023-01-17T03:29:55.389Z,39.00
2023-01-17T03:30:57.751Z,39.20
2023-01-17T03:32:00.131Z,38.80
2023-01-17T03:33:03.294Z,38.80
2023-01-17T03:34:05.720Z,39.00
2023-01-17T03:35:08.558Z,39.00
2023-01-17T03:36:11.913Z,39.30
2023-01-17T03:37:14.388Z,38.90
2023-01-17T03:38:16.694Z,38.80
2023-01-17T03:39:19.073Z,38.70
2023-01-17T03:40:21.333Z,38.90
2023-01-17T03:41:23.650Z,38.90
2023-01-17T03:42:25.962Z,38.90
2023-01-17T03:43:28.446Z,38.70
2023-01-17T03:44:30.774Z,39.10
2023-01-17T03:45:38.795Z,38.80
2023-01-17T03:46:41.161Z,39.70
2023-01-17T03:47:43.472Z,38.80
2023-01-17T03:48:45.983Z,39.20
2023-01-17T03:49:48.324Z,38.80
2023-01-17T03:50:51.366Z,38.00
2023-01-17T03:51:53.800Z,38.10
2023-01-17T03:52:56.104Z,38.50
2023-01-17T03:53:58.540Z,38.90
2023-01-17T03:55:02.522Z,39.20
2023-01-17T03:56:05.287Z,40.00
2023-01-17T03:57:08.495Z,41.00
2023-01-17T03:58:10.900Z,42.30
2023-01-17T03:59:13.462Z,41.50
2023-01-17T04:00:16.066Z,42.10
2023-01-17T04:01:19.013Z,42.20
2023-01-17T04:02:21.446Z,42.90
2023-01-17T04:03:23.824Z,42.30
2023-01-17T04:04:26.220Z,42.20
2023-01-17T04:05:28.570Z,42.60
2023-01-17T04:06:30.942Z,42.40
2023-01-17T04:07:33.249Z,42.80
2023-01-17T04:08:35.760Z,42.70
2023-01-17T04:09:38.198Z,43.10
2023-01-17T04:10:40.478Z,43.00
2023-01-17T04:11:43.003Z,42.70
2023-01-17T04:12:45.323Z,42.80
2023-01-17T04:13:47.685Z,42.70
2023-01-17T04:14:50.056Z,42.70
2023-01-17T04:15:52.386Z,43.30
2023-01-17T04:16:55.286Z,42.60
2023-01-17T04:17:57.852Z,42.70
2023-01-17T04:19:00.212Z,42.90
2023-01-17T04:20:02.770Z,42.90
2023-01-17T04:21:05.245Z,42.80
2023-01-17T04:22:07.746Z,42.70
2023-01-17T04:23:10.324Z,42.70
2023-01-17T04:24:12.632Z,42.50
2023-01-17T04:25:14.982Z,42.60
2023-01-17T04:26:17.302Z,42.70
2023-01-17T04:27:19.867Z,42.50
2023-01-17T04:28:22.319Z,42.10
2023-01-17T04:29:24.760Z,42.50
2023-01-17T04:30:28.407Z,42.40
2023-01-17T04:31:30.732Z,42.60
2023-01-17T04:32:33.237Z,42.20
2023-01-17T04:33:35.546Z,42.90
2023-01-17T04:34:37.887Z,42.60
2023-01-17T04:35:40.350Z,42.60
2023-01-17T04:36:42.669Z,42.70
2023-01-17T04:37:44.997Z,42.50
2023-01-17T04:38:47.434Z,37.10
2023-01-17T04:39:49.862Z,35.20
2023-01-17T04:40:52.184Z,35.70
2023-01-17T04:41:54.508Z,36.40
2023-01-17T04:42:57.788Z,38.80
2023-01-17T04:44:00.153Z,41.70
2023-01-17T04:45:03.209Z,42.20
2023-01-17T04:46:09.904Z,42.60
2023-01-17T04:47:12.270Z,42.90
2023-01-17T04:48:14.736Z,43.00
2023-01-17T04:49:17.151Z,43.10
2023-01-17T04:50:19.589Z,43.20
2023-01-17T04:51:22.995Z,43.30
2023-01-17T04:52:25.393Z,43.30
2023-01-17T04:53:28.440Z,43.00
2023-01-17T04:54:30.767Z,43.00
2023-01-17T04:55:33.119Z,43.20
2023-01-17T04:56:35.384Z,43.10
2023-01-17T04:57:37.673Z,43.20
2023-01-17T04:58:40.016Z,43.20
2023-01-17T04:59:43.431Z,43.10
2023-01-17T05:00:50.603Z,43.00
2023-01-17T05:01:53.001Z,43.40
2023-01-17T05:02:55.398Z,43.30
2023-01-17T05:03:57.896Z,42.70
2023-01-17T05:05:00.224Z,42.90
2023-01-17T05:06:02.918Z,42.80
2023-01-17T05:07:05.811Z,42.70
2023-01-17T05:08:08.362Z,43.50
2023-01-17T05:09:10.919Z,42.90
2023-01-17T05:10:13.291Z,43.10
2023-01-17T05:11:15.699Z,43.50
2023-01-17T05:12:18.060Z,42.90
2023-01-17T05:13:20.439Z,43.60
2023-01-17T05:14:26.354Z,43.50
2023-01-17T05:15:28.909Z,42.90
2023-01-17T05:16:31.157Z,43.50
2023-01-17T05:17:33.645Z,42.90
2023-01-17T05:18:36.043Z,40.80
2023-01-17T05:19:38.291Z,36.40
2023-01-17T05:20:40.746Z,37.70
2023-01-17T05:21:43.070Z,39.30
2023-01-17T05:22:47.314Z,40.70
2023-01-17T05:23:49.700Z,42.10
2023-01-17T05:24:52.040Z,42.40
2023-01-17T05:25:54.393Z,43.60
2023-01-17T05:27:02.903Z,43.70
2023-01-17T05:28:05.533Z,43.10
2023-01-17T05:29:07.862Z,43.00
2023-01-17T05:30:10.912Z,42.50
2023-01-17T05:31:13.256Z,42.40
2023-01-17T05:32:15.551Z,42.70
2023-01-17T05:33:17.914Z,42.40
2023-01-17T05:34:20.237Z,42.60
2023-01-17T05:35:25.499Z,42.40
2023-01-17T05:36:27.770Z,42.40
2023-01-17T05:37:30.060Z,42.30
2023-01-17T05:38:32.433Z,42.30
2023-01-17T05:39:34.871Z,42.20
2023-01-17T05:40:37.156Z,42.60
2023-01-17T05:41:39.760Z,42.30
2023-01-17T05:42:49.167Z,42.30
2023-01-17T05:43:51.667Z,42.30
2023-01-17T05:44:53.995Z,42.10
2023-01-17T05:45:56.520Z,42.20
2023-01-17T05:46:58.861Z,42.30
2023-01-17T05:48:02.993Z,38.10
2023-01-17T05:49:05.595Z,40.90
2023-01-17T05:50:08.373Z,41.20
2023-01-17T05:51:10.980Z,41.40
2023-01-17T05:52:13.835Z,41.30
2023-01-17T05:53:17.194Z,41.40
2023-01-17T05:54:19.591Z,41.60
2023-01-17T05:55:23.112Z,43.00
2023-01-17T05:56:25.506Z,43.20
2023-01-17T05:57:27.883Z,43.60
2023-01-17T05:58:30.246Z,43.60
2023-01-17T05:59:37.358Z,43.50
2023-01-17T06:00:40.166Z,43.40
2023-01-17T06:01:42.468Z,43.80
2023-01-17T06:02:45.550Z,43.70
2023-01-17T06:03:48.041Z,44.40
2023-01-17T06:04:50.538Z,43.90
2023-01-17T06:05:52.938Z,45.20
2023-01-17T06:06:55.274Z,44.10
2023-01-17T06:07:58.222Z,43.80
2023-01-17T06:09:00.538Z,44.10
2023-01-17T06:10:03.056Z,44.30
2023-01-17T06:11:05.492Z,45.30
2023-01-17T06:12:07.950Z,44.40
2023-01-17T06:13:12.611Z,44.30
2023-01-17T06:14:15.110Z,44.00
2023-01-17T06:15:18.206Z,44.60
2023-01-17T06:16:20.593Z,45.00
2023-01-17T06:17:23.023Z,45.50
2023-01-17T06:18:25.377Z,43.70
2023-01-17T06:19:27.677Z,37.90
2023-01-17T06:20:30.046Z,41.30
2023-01-17T06:21:32.472Z,41.80
2023-01-17T06:22:34.798Z,43.50
2023-01-17T06:23:37.177Z,42.50
2023-01-17T06:24:39.592Z,42.00
2023-01-17T06:25:44.403Z,42.60
2023-01-17T06:26:46.702Z,42.30
2023-01-17T06:27:49.112Z,42.30
2023-01-17T06:28:51.596Z,42.20
2023-01-17T06:29:54.010Z,42.10
2023-01-17T06:30:56.427Z,43.70
2023-01-17T06:32:01.544Z,44.10
2023-01-17T06:33:04.971Z,43.70
2023-01-17T06:34:07.329Z,44.30
2023-01-17T06:35:09.775Z,43.70
2023-01-17T06:36:12.057Z,43.50
2023-01-17T06:37:14.417Z,43.30
2023-01-17T06:38:17.226Z,43.20
2023-01-17T06:39:19.771Z,43.10
2023-01-17T06:40:22.386Z,43.00
2023-01-17T06:41:25.887Z,42.90
2023-01-17T06:42:28.234Z,42.90
2023-01-17T06:43:33.723Z,42.80
2023-01-17T06:44:36.168Z,42.90
2023-01-17T06:45:38.555Z,42.90
2023-01-17T06:46:41.121Z,42.90
2023-01-17T06:47:44.195Z,43.00
2023-01-17T06:48:48.852Z,43.00
2023-01-17T06:49:51.186Z,43.20
2023-01-17T06:50:53.625Z,43.10
2023-01-17T06:51:55.918Z,43.10
2023-01-17T06:53:00.815Z,43.10
2023-01-17T06:54:03.218Z,43.20
2023-01-17T06:55:06.222Z,43.30
2023-01-17T06:56:09.704Z,43.30
2023-01-17T06:57:12.023Z,43.30
2023-01-17T06:58:14.405Z,43.40
2023-01-17T06:59:16.831Z,43.50
2023-01-17T07:00:19.442Z,43.50
2023-01-17T07:01:21.814Z,43.50
2023-01-17T07:02:24.418Z,43.50
2023-01-17T07:03:27.183Z,43.50
2023-01-17T07:04:29.776Z,43.50
2023-01-17T07:05:32.780Z,43.50
2023-01-17T07:06:37.847Z,43.60
2023-01-17T07:07:40.114Z,43.60
2023-01-17T07:08:42.503Z,43.50
2023-01-17T07:09:44.844Z,43.40
2023-01-17T07:10:47.735Z,43.50
2023-01-17T07:11:51.767Z,43.50
2023-01-17T07:12:59.656Z,43.50
2023-01-17T07:14:02.022Z,43.50
2023-01-17T07:15:05.126Z,43.50
2023-01-17T07:16:08.578Z,43.40
2023-01-17T07:17:10.913Z,43.50
2023-01-17T07:18:13.294Z,43.40
2023-01-17T07:19:15.557Z,43.50
2023-01-17T07:20:17.889Z,43.50
2023-01-17T07:21:20.276Z,43.50
2023-01-17T07:22:22.752Z,43.50
2023-01-17T07:23:25.602Z,43.80
2023-01-17T07:24:27.967Z,43.50
2023-01-17T07:25:30.306Z,44.00
2023-01-17T07:26:32.967Z,44.00
2023-01-17T07:28:01.279Z,43.70
2023-01-17T07:29:05.355Z,43.50
2023-01-17T07:30:10.885Z,43.60
2023-01-17T07:31:13.501Z,43.80
2023-01-17T07:32:15.975Z,43.30
2023-01-17T07:33:19.409Z,42.00
2023-01-17T07:34:22.208Z,42.60
2023-01-17T07:35:26.752Z,42.80
2023-01-17T07:36:29.636Z,43.20
2023-01-17T07:37:32.171Z,42.90
2023-01-17T07:38:35.107Z,43.30
2023-01-17T07:39:37.721Z,44.70
2023-01-17T07:40:42.416Z,45.10
2023-01-17T07:41:45.260Z,45.80
2023-01-17T07:42:48.145Z,45.80
2023-01-17T07:43:50.822Z,45.20
2023-01-17T07:44:53.326Z,45.50
2023-01-17T07:45:55.754Z,45.30
2023-01-17T07:46:58.102Z,45.30
2023-01-17T07:48:00.372Z,45.10
2023-01-17T07:49:03.146Z,45.00
2023-01-17T07:50:06.761Z,44.90
2023-01-17T07:51:09.722Z,44.80
2023-01-17T07:52:12.135Z,44.80
2023-01-17T07:53:14.639Z,44.80
2023-01-17T07:54:17.176Z,44.60
2023-01-17T07:55:19.505Z,44.60
2023-01-17T07:56:21.887Z,44.70
2023-01-17T07:57:24.394Z,44.50
2023-01-17T07:58:26.711Z,44.40
2023-01-17T07:59:29.287Z,44.20
2023-01-17T08:00:31.571Z,45.00
2023-01-17T08:01:34.028Z,44.60
2023-01-17T08:02:36.551Z,45.00
2023-01-17T08:03:42.530Z,44.90
2023-01-17T08:04:45.514Z,45.00
2023-01-17T08:05:56.123Z,45.00
2023-01-17T08:07:00.383Z,45.00
2023-01-17T08:08:02.724Z,44.80
2023-01-17T08:09:05.260Z,44.30
2023-01-17T08:10:12.935Z,44.40
2023-01-17T08:11:15.861Z,44.20
2023-01-17T08:12:18.345Z,44.20
2023-01-17T08:13:21.840Z,44.10
2023-01-17T08:14:24.879Z,44.30
2023-01-17T08:15:27.378Z,44.20
2023-01-17T08:16:30.063Z,44.20
2023-01-17T08:17:32.522Z,44.40
2023-01-17T08:18:34.947Z,44.30
2023-01-17T08:19:37.530Z,44.30
2023-01-17T08:20:39.863Z,44.30
2023-01-17T08:21:42.141Z,44.10
2023-01-17T08:22:44.501Z,44.50
2023-01-17T08:23:51.751Z,44.40
2023-01-17T08:24:54.143Z,44.40
2023-01-17T08:26:00.573Z,44.80
2023-01-17T08:27:03.003Z,44.30
2023-01-17T08:28:05.798Z,44.20
2023-01-17T08:29:09.133Z,44.20
2023-01-17T08:30:11.810Z,44.20
2023-01-17T08:31:14.205Z,44.30
2023-01-17T08:32:16.615Z,44.30
2023-01-17T08:33:18.967Z,44.30
2023-01-17T08:34:22.509Z,44.30
2023-01-17T08:35:24.987Z,44.20
2023-01-17T08:36:28.515Z,44.30
2023-01-17T08:37:30.899Z,44.30
2023-01-17T08:38:33.327Z,44.30
2023-01-17T08:39:35.754Z,44.30
2023-01-17T08:40:38.178Z,44.20
2023-01-17T08:41:40.848Z,44.40
2023-01-17T08:42:44.214Z,44.30
2023-01-17T08:43:51.076Z,44.20
2023-01-17T08:44:53.726Z,44.40
2023-01-17T08:45:56.282Z,44.30
2023-01-17T08:46:58.999Z,44.40
2023-01-17T08:48:01.478Z,44.50
2023-01-17T08:49:04.004Z,44.40
2023-01-17T08:50:07.153Z,44.50
2023-01-17T08:51:10.419Z,44.50
2023-01-17T08:52:14.363Z,44.60
2023-01-17T08:53:18.142Z,44.50
2023-01-17T08:54:22.206Z,44.50
2023-01-17T08:55:25.577Z,44.50
2023-01-17T08:56:27.958Z,44.50
2023-01-17T08:57:31.595Z,44.50
2023-01-17T08:58:34.985Z,44.50
2023-01-17T08:59:37.311Z,44.30
2023-01-17T09:00:39.892Z,43.40
2023-01-17T09:01:42.362Z,41.60
2023-01-17T09:02:44.732Z,40.40
2023-01-17T09:03:49.110Z,40.70
2023-01-17T09:04:51.965Z,41.60
2023-01-17T09:06:13.781Z,41.80
2023-01-17T09:07:18.498Z,42.30
2023-01-17T09:08:20.802Z,42.80
2023-01-17T09:09:23.257Z,42.80
2023-01-17T09:10:25.638Z,42.80
2023-01-17T09:11:28.050Z,43.10
2023-01-17T09:12:34.279Z,43.30
2023-01-17T09:13:37.255Z,43.50
2023-01-17T09:14:39.928Z,43.60
2023-01-17T09:15:42.247Z,43.60
2023-01-17T09:16:44.590Z,43.70
2023-01-17T09:17:47.752Z,43.70
2023-01-17T09:18:54.380Z,43.80
2023-01-17T09:19:59.292Z,43.90
2023-01-17T09:21:13.263Z,43.90
2023-01-17T09:22:16.160Z,43.90
2023-01-17T09:23:18.538Z,44.00
2023-01-17T09:24:21.064Z,44.10
2023-01-17T09:25:23.731Z,44.10
2023-01-17T09:26:29.750Z,44.10
2023-01-17T09:27:32.466Z,44.10
2023-01-17T09:28:41.053Z,44.20
2023-01-17T09:29:43.698Z,44.20
2023-01-17T09:30:46.663Z,44.20
2023-01-17T09:31:49.078Z,44.30
2023-01-17T09:32:54.858Z,44.30
2023-01-17T09:33:58.223Z,44.30
2023-01-17T09:35:01.010Z,44.30
2023-01-17T09:36:05.349Z,44.30
2023-01-17T09:37:07.720Z,44.30
2023-01-17T09:38:11.017Z,44.40
2023-01-17T09:39:15.267Z,44.40
2023-01-17T09:40:22.980Z,44.50
2023-01-17T09:41:44.149Z,44.20
2023-01-17T09:42:50.463Z,44.00
2023-01-17T09:44:07.487Z,43.90
2023-01-17T09:45:17.017Z,44.30
2023-01-17T09:46:23.974Z,44.10
2023-01-17T09:47:43.749Z,41.50
2023-01-17T09:48:46.716Z,40.40
2023-01-17T09:49:49.517Z,40.40
2023-01-17T09:51:12.329Z,40.40
2023-01-17T09:52:18.447Z,40.50
2023-01-17T09:53:21.494Z,40.50
2023-01-17T09:54:27.435Z,40.90
2023-01-17T09:55:37.040Z,42.00
2023-01-17T09:56:49.006Z,41.90
2023-01-17T09:58:00.226Z,42.10
2023-01-17T09:59:38.840Z,42.20
2023-01-17T10:00:57.439Z,42.50
2023-01-17T10:02:14.829Z,42.70
2023-01-17T10:03:23.736Z,43.10
2023-01-17T10:04:51.310Z,43.20
2023-01-17T10:06:19.091Z,43.50
2023-01-17T10:07:43.177Z,44.30
2023-01-17T10:08:45.753Z,44.30
2023-01-17T10:09:56.712Z,44.30
2023-01-17T10:11:20.504Z,44.40
2023-01-17T10:12:54.607Z,44.40
2023-01-17T10:14:30.697Z,44.40
2023-01-17T10:15:49.784Z,44.40
2023-01-17T10:17:01.637Z,44.50
2023-01-17T10:18:32.510Z,44.50
2023-01-17T10:20:05.525Z,44.50
2023-01-17T10:21:27.994Z,44.50
2023-01-17T10:22:51.100Z,44.60
2023-01-17T10:24:26.883Z,44.60
2023-01-17T10:25:37.349Z,44.60
2023-01-17T10:26:39.887Z,44.80
2023-01-17T10:27:51.360Z,44.80
2023-01-17T10:29:00.113Z,44.40
2023-01-17T10:30:11.906Z,44.60
2023-01-17T10:31:27.386Z,42.30
2023-01-17T10:32:33.340Z,41.70
2023-01-17T10:33:44.463Z,42.50
2023-01-17T10:34:50.413Z,42.70
2023-01-17T10:36:05.683Z,44.20
2023-01-17T10:37:24.267Z,44.20
2023-01-17T10:38:53.504Z,44.40
2023-01-17T10:40:02.508Z,44.50
2023-01-17T10:41:10.674Z,44.60
2023-01-17T10:42:32.046Z,44.80
2023-01-17T10:43:57.124Z,44.80
2023-01-17T10:45:07.331Z,44.40
2023-01-17T10:46:16.819Z,45.10
2023-01-17T10:47:22.160Z,44.70
2023-01-17T10:48:35.881Z,44.80
2023-01-17T10:49:47.664Z,44.90
2023-01-17T10:50:56.054Z,44.80
2023-01-17T10:52:25.694Z,45.00
2023-01-17T10:53:49.437Z,45.00
2023-01-17T10:55:04.053Z,45.10
2023-01-17T10:56:07.099Z,45.10
2023-01-17T10:57:19.630Z,45.10
2023-01-17T10:58:21.912Z,45.10
2023-01-17T10:59:33.573Z,45.20
2023-01-17T11:01:20.791Z,45.10
2023-01-17T11:02:30.716Z,45.10
2023-01-17T11:03:34.667Z,45.20
2023-01-17T11:04:41.669Z,45.20
2023-01-17T11:05:44.313Z,45.20
2023-01-17T11:06:57.895Z,45.30
2023-01-17T11:08:02.133Z,45.20
2023-01-17T11:09:06.927Z,45.10
2023-01-17T11:10:37.953Z,44.80
2023-01-17T11:11:51.403Z,44.70
2023-01-17T11:12:53.876Z,44.40
2023-01-17T11:13:58.463Z,44.40
2023-01-17T11:15:21.917Z,44.30
2023-01-17T11:16:27.703Z,44.30
2023-01-17T11:17:31.464Z,44.30
2023-01-17T11:18:39.073Z,44.50
2023-01-17T11:19:45.240Z,44.60
2023-01-17T11:20:49.406Z,44.60
2023-01-17T11:22:01.586Z,44.10
2023-01-17T11:23:09.993Z,43.80
2023-01-17T11:24:20.309Z,42.10
2023-01-17T11:25:24.329Z,41.40
2023-01-17T11:26:32.726Z,40.30
2023-01-17T11:27:39.378Z,40.90
2023-01-17T11:28:42.251Z,42.20
2023-01-17T11:29:44.644Z,42.90
2023-01-17T11:30:52.680Z,43.50
2023-01-17T11:31:58.032Z,43.90
2023-01-17T11:33:04.160Z,43.80
2023-01-17T11:34:15.624Z,43.90
2023-01-17T11:35:43.928Z,44.20
2023-01-17T11:36:46.381Z,44.30
2023-01-17T11:37:58.012Z,44.50
2023-01-17T11:39:03.243Z,44.60
2023-01-17T11:40:18.152Z,44.50
2023-01-17T11:41:22.005Z,44.60
2023-01-17T11:42:38.297Z,44.60
2023-01-17T11:43:53.014Z,44.80
2023-01-17T11:44:55.571Z,44.90
2023-01-17T11:46:02.120Z,44.80
2023-01-17T11:47:13.140Z,44.80
2023-01-17T11:48:17.357Z,44.80
2023-01-17T11:49:25.082Z,45.00
2023-01-17T11:50:27.878Z,45.00
2023-01-17T11:51:39.349Z,45.50
2023-01-17T11:52:41.702Z,45.00
2023-01-17T11:53:48.945Z,45.10
2023-01-17T11:54:54.095Z,45.30
2023-01-17T11:56:01.112Z,45.40
2023-01-17T11:57:03.477Z,45.30
2023-01-17T11:58:05.815Z,45.30
2023-01-17T11:59:24.110Z,45.40
2023-01-17T12:00:45.986Z,45.50
2023-01-17T12:02:21.364Z,45.50
2023-01-17T12:04:08.076Z,45.60
2023-01-17T12:05:53.487Z,45.60
2023-01-17T12:07:23.232Z,45.70
2023-01-17T12:08:42.559Z,45.70
2023-01-17T12:09:53.714Z,45.80
2023-01-17T12:11:18.731Z,46.00
2023-01-17T12:12:57.623Z,45.80
2023-01-17T12:14:24.104Z,45.70
2023-01-17T12:15:47.733Z,46.00
2023-01-17T12:17:15.010Z,46.00
2023-01-17T12:18:36.092Z,46.00
2023-01-17T12:20:06.396Z,46.10
2023-01-17T12:21:29.791Z,46.00
2023-01-17T12:23:08.219Z,46.00
2023-01-17T12:24:41.451Z,46.10
2023-01-17T12:26:02.105Z,46.10
2023-01-17T12:27:31.825Z,46.00
2023-01-17T12:29:19.826Z,46.20
2023-01-17T12:30:37.598Z,46.10
2023-01-17T12:31:56.133Z,46.20
2023-01-17T12:33:54.948Z,46.20
2023-01-17T12:35:18.047Z,46.30
2023-01-17T12:36:47.361Z,46.30
2023-01-17T12:38:04.665Z,46.40
2023-01-17T12:39:11.720Z,46.20
2023-01-17T12:40:20.747Z,46.30
2023-01-17T12:41:38.087Z,46.20
2023-01-17T12:42:48.748Z,46.40
2023-01-17T12:43:55.183Z,46.40
2023-01-17T12:45:07.430Z,46.40
2023-01-17T12:46:27.031Z,46.50
2023-01-17T12:47:32.193Z,46.30
2023-01-17T12:48:37.836Z,46.40
2023-01-17T12:49:50.250Z,46.40
2023-01-17T12:51:09.292Z,46.30
2023-01-17T12:52:40.640Z,46.50
2023-01-17T12:54:03.360Z,46.60
2023-01-17T12:55:16.193Z,45.10
2023-01-17T12:56:40.257Z,45.80
2023-01-17T12:57:48.913Z,46.10
2023-01-17T12:59:01.003Z,46.10
2023-01-17T13:00:12.386Z,45.90
2023-01-17T13:01:35.384Z,45.90
2023-01-17T13:02:49.729Z,46.00
2023-01-17T13:04:07.191Z,46.10
2023-01-17T13:05:18.373Z,46.30
2023-01-17T13:06:29.981Z,46.30
2023-01-17T13:07:50.980Z,46.40
2023-01-17T13:08:58.107Z,46.40
2023-01-17T13:10:26.470Z,46.40
2023-01-17T13:11:41.078Z,46.40
2023-01-17T13:12:46.899Z,46.40
2023-01-17T13:13:51.393Z,46.30
2023-01-17T13:14:53.917Z,46.30
2023-01-17T13:16:13.467Z,46.30
2023-01-17T13:17:42.071Z,46.40
2023-01-17T13:18:47.077Z,46.30
2023-01-17T13:20:06.150Z,46.20
2023-01-17T13:21:31.199Z,46.30
2023-01-17T13:22:38.329Z,46.20
2023-01-17T13:24:06.419Z,46.30
2023-01-17T13:25:36.134Z,46.20
2023-01-17T13:27:06.370Z,46.30
2023-01-17T13:28:39.263Z,46.20
2023-01-17T13:29:53.633Z,46.20
2023-01-17T13:31:08.894Z,46.20
2023-01-17T13:32:14.173Z,46.40
2023-01-17T13:33:40.474Z,46.20
2023-01-17T13:34:57.256Z,46.30
2023-01-17T13:36:12.367Z,46.30
2023-01-17T13:37:35.900Z,46.20
2023-01-17T13:39:05.410Z,46.20
2023-01-17T13:40:07.767Z,46.30
2023-01-17T13:41:21.890Z,46.10
2023-01-17T13:43:02.667Z,46.20
2023-01-17T13:44:24.497Z,46.20
2023-01-17T13:45:35.711Z,46.30
2023-01-17T13:47:04.215Z,46.40
2023-01-17T13:48:12.286Z,46.40
2023-01-17T13:49:42.533Z,46.40
2023-01-17T13:50:44.855Z,46.40
2023-01-17T13:52:12.712Z,46.40
2023-01-17T13:53:33.825Z,46.50
2023-01-17T13:54:44.878Z,46.50
2023-01-17T13:55:53.076Z,46.50
2023-01-17T13:57:29.925Z,46.60
2023-01-17T13:58:51.638Z,46.60
2023-01-17T13:59:58.820Z,46.80
2023-01-17T14:01:01.407Z,46.80
2023-01-17T14:02:23.702Z,47.00
2023-01-17T14:03:54.768Z,47.00
2023-01-17T14:05:23.203Z,46.50
2023-01-17T14:06:41.384Z,46.30
2023-01-17T14:08:05.996Z,45.70
2023-01-17T14:09:08.228Z,45.90
2023-01-17T14:10:48.399Z,46.10
2023-01-17T14:12:07.587Z,46.20
2023-01-17T14:13:35.429Z,46.30
2023-01-17T14:14:40.779Z,46.30
2023-01-17T14:15:50.939Z,46.30
2023-01-17T14:16:53.343Z,46.40
2023-01-17T14:18:00.633Z,46.30
2023-01-17T14:19:04.205Z,46.30
2023-01-17T14:20:09.404Z,46.30
2023-01-17T14:21:27.342Z,46.30
2023-01-17T14:22:38.600Z,46.20
2023-01-17T14:23:48.119Z,46.20
2023-01-17T14:25:12.049Z,46.20
2023-01-17T14:26:22.101Z,46.20
2023-01-17T14:27:26.977Z,46.20
2023-01-17T14:28:30.522Z,46.20
2023-01-17T14:29:56.982Z,46.20
2023-01-17T14:31:00.926Z,46.20
2023-01-17T14:32:05.605Z,46.50
2023-01-17T14:33:17.690Z,46.40
2023-01-17T14:34:22.697Z,46.10
2023-01-17T14:35:28.142Z,45.60
2023-01-17T14:36:32.918Z,45.50
2023-01-17T14:37:44.476Z,45.80
2023-01-17T14:38:46.781Z,45.80
2023-01-17T14:39:50.909Z,45.40
2023-01-17T14:41:01.143Z,44.10
2023-01-17T14:42:03.534Z,44.00
2023-01-17T14:43:12.265Z,45.00
2023-01-17T14:44:14.727Z,45.30
2023-01-17T14:45:26.080Z,45.60
2023-01-17T14:46:32.364Z,45.70
2023-01-17T14:47:39.329Z,45.90
2023-01-17T14:48:41.989Z,45.90